Cedar City, Utah Weather observations

Data are for observation ending at time listed.
 Day   Time    Ave.   Ave.  Ave.  Vector   Max.   Stn.    Total    Solar   Ave.  
  of    of     Air    Rel.  Wind   Wind    Wind   Baro.  Precip.   Rad.    Soil  
Year   Day     Temp.  Hum.  Speed  Dir.    Gust   Pres.                    Temp. 
2015   (MST)    F      %     mph   deg.    mph     mb.     in.     W/m2     F   
------------------------------------------------------------------------------
 240    6:20   64.0    39    4.3   102      8.0   828.1    0.00      11    71.6
 240    6:30   63.4    42    2.9   138      6.7   828.2    0.00      15    71.5
 240    6:40   61.6    47    2.0   150      5.1   828.3    0.00      22    71.5
 240    6:50   62.6    49    0.8   201      2.3   828.4    0.00     102    71.5
 240    7:00   65.0    43    1.4   123      5.3   828.5    0.00     133    71.5
 240    7:10   66.7    43    1.0   181      2.9   828.5    0.00     163    71.5
 240    7:20   67.9    39    1.4   115      5.3   828.5    0.00     196    71.4
 240    7:30   69.0    35    2.7   108      4.2   828.5    0.00     229    71.4
 240    7:40   69.5    34    2.7   108      5.0   828.6    0.00     262    71.4
 240    7:50   70.9    33    1.6   119      4.2   828.7    0.00     291    71.4
 240    8:00   71.8    32    1.7    28      2.7   828.7    0.00     331    71.5
 240    8:10   70.5    39    2.9   323      5.3   828.7    0.00     350    71.5
 240    8:20   68.9    44    2.3   326      5.0   828.7    0.00     398    71.5
 240    8:30   70.1    39    1.8    13      3.7   828.8    0.00     430    71.5
 240    8:40   71.0    37    1.7   317      3.1   828.8    0.00     442    71.5
 240    8:50   72.0    35    1.7   272      2.9   828.8    0.00     497    71.5
 240    9:00   72.9    36    1.7   294      4.1   828.9    0.00     525    71.6
 240    9:10   73.3    36    2.2   294      4.5   828.9    0.00     554    71.6
 240    9:20   73.8    35    1.7   351      4.9   828.9    0.00     587    71.6
 240    9:30   75.7    34    1.4    42      3.9   829.0    0.00     590    71.6
 240    9:40   75.8    32    1.9   318      5.1   829.0    0.00     541    71.6
 240    9:50   76.0    31    1.7     8      3.8   829.0    0.00     671    71.7
 240   10:00   77.7    31    1.2    15      4.5   829.0    0.00     697    71.7
 240   10:10   78.6    28    0.9     6      3.8   828.9    0.00     723    71.7
 240   10:20   78.8    28    1.3   324      3.7   829.0    0.00     744    71.8
 240   10:30   79.6    28    1.5    38      5.0   828.9    0.00     768    71.8
 240   10:40   78.9    28    2.3    60      4.9   828.8    0.00     787    71.8
 240   10:50   79.4    28    1.6   322      4.8   828.8    0.00     800    71.9
 240   11:00   80.3    26    1.5    67      5.2   828.7    0.00     822    71.9
 240   11:10   80.3    26    1.5   302      5.8   828.7    0.00     831    71.9
 240   11:20   81.9    24    0.7   312      4.5   828.5    0.00     847    72.0
 240   11:30   82.1    23    0.8   272      3.3   828.5    0.00     859    72.0
 240   11:40   82.0    23    1.9   332      6.2   828.5    0.00     871    72.1
 240   11:50   81.6    22    1.9   312      7.2   828.3    0.00     885    72.1
 240   12:00   82.5    20    2.0   270      7.7   828.2    0.00     891    72.2
 240   12:10   82.3    19    3.1   299      8.0   828.1    0.00     897    72.2
 240   12:20   82.6    20    2.3    58      6.7   827.9    0.00     904    72.3
 240   12:30   83.2    21    1.2     4      4.6   827.8    0.00     906    72.3
 240   12:40   84.2    20    2.3   265      4.9   827.6    0.00     910    72.4
 240   12:50   83.5    21    3.3   314      6.9   827.8    0.00     919    72.4
 240   13:00   83.6    21    1.4   312      4.8   827.5    0.00     921    72.5
 240   13:10   84.0    20    1.2   303      4.5   827.5    0.00     921    72.6
 240   13:20   84.5    19    2.4   283      6.4   827.4    0.00     926    72.6
 240   13:30   84.2    20    2.8   288      8.8   827.3    0.00     932    72.7
 240   13:40   86.1    18    1.5   189      5.8   827.2    0.00     920    72.8
 240   13:50   85.9    19    0.8   332      5.0   827.2    0.00     908    72.9
 240   14:00   87.1    19    1.3   153      5.1   827.0    0.00     892    72.9
 240   14:10   86.5    19    1.8   226      6.1   826.9    0.00     873    73.0
 240   14:20   87.3    18    2.5   202      6.9   826.9    0.00     864    73.1
 240   14:30   87.9    20    2.7   172     12.1   826.8    0.00     861    73.1
 240   14:40   86.9    20    3.3   162      9.3   826.7    0.00     860    73.2
 240   14:50   86.7    20    3.6   162      9.6   826.7    0.00     692    73.2
 240   15:00   87.2    20    1.9   148      6.9   826.6    0.00     846    73.3
 240   15:10   87.5    19    1.9   123      6.9   826.3    0.00     735    73.4
 240   15:20   87.8    19    0.7   146      4.2   826.2    0.00     326    73.5
 240   15:30   88.4    19    2.4   213      9.6   826.1    0.00     478    73.7
 240   15:40   88.2    19    4.2   237     10.9   826.0    0.00     639    73.8
 240   15:50   88.2    18    4.4   229     11.2   825.9    0.00     699    73.9
 240   16:00   88.3    18    4.6   223      8.7   825.9    0.00     688    74.0
 240   16:10   88.1    18    4.2   224      9.7   825.9    0.00     679    74.2
 240   16:20   88.4    18    5.2   223     14.0   825.8    0.00     615    74.3
 240   16:30   88.1    17    5.1   214     11.2   825.8    0.00     619    74.4
 240   16:40   87.5    18    6.4   223     16.1   825.7    0.00     574    74.5
 240   16:50   87.0    18    6.3   224     11.3   825.7    0.00     492    74.6
 240   17:00   86.8    18    6.0   222     11.7   825.8    0.00     457    74.7
 240   17:10   86.3    18    5.4   214     10.7   825.7    0.00     384    74.7
 240   17:20   86.4    18    5.7   224     11.2   825.7    0.00     353    74.8
 240   17:30   86.3    19    4.7   232      9.5   825.6    0.00     308    74.9
 240   17:40   86.1    19    4.9   230     10.2   825.6    0.00     271    75.0
 240   17:50   86.4    19    4.1   232      7.7   825.5    0.00     227    75.2
 240   18:00   86.1    19    4.4   237      9.1   825.5    0.00     190    75.3
 240   18:10   85.1    20    3.8   232      6.9   825.5    0.00     128    75.4
 240   18:20   84.9    20    3.8   224      7.9   825.4    0.00     115    75.5
 240   18:30   84.9    20    3.2   216      6.8   825.3    0.00      80    75.5
 240   18:40   84.0    20    3.1   224      7.2   825.3    0.00      50    75.6
 240   18:50   83.1    21    2.8   220      7.3   825.3    0.00      19    75.7
 240   19:00   82.0    22    2.1   203      5.3   825.4    0.00      11    75.8
 240   19:10   81.6    22    2.6   205      5.8   825.4    0.00       5    75.8
 240   19:20   80.7    23    1.5   184      4.5   825.4    0.00       3    75.9
 240   19:30   79.9    24    1.9   122      4.0   825.4    0.00       1    75.9
 240   19:40   79.3    24    1.8   141      3.9   825.5    0.00       0    76.0
 240   19:50   79.1    24    1.9   131      4.7   825.5    0.00       0    76.0
 240   20:00   78.8    25    2.8   107      5.3   825.6    0.00       0    76.1
 240   20:10   78.2    26    2.8    98      4.7   825.8    0.00       0    76.1
 240   20:20   77.8    27    3.0   110      6.8   825.8    0.00       0    76.1
 240   20:30   76.6    28    5.1   101      8.8   825.9    0.00       0    76.1
 240   20:40   75.8    29    4.9    94     10.0   826.0    0.00       0    76.1
 240   20:50   75.6    29    4.9   102      9.5   826.2    0.00       0    76.2
 240   21:00   75.1    29    5.5    99      9.5   826.2    0.00       0    76.1
 240   21:10   74.6    30    7.4    96     12.9   826.2    0.00       0    76.1
 240   21:20   74.2    30    6.9    97     12.1   826.2    0.00       0    76.1
 240   21:30   74.1    30    7.0    96     12.6   826.2    0.00       0    76.1
 240   21:40   73.7    30    5.8   105     11.0   826.3    0.00       0    76.1
 240   21:50   73.6    30    6.2   112     11.8   826.3    0.00       0    76.1
 240   22:00   73.0    31    6.5   114     17.0   826.3    0.00       0    76.1
 240   22:10   72.5    32    7.6   103     11.8   826.2    0.00       0    76.0
 240   22:20   72.0    33    6.7    94     11.8   826.2    0.00       0    76.0
 240   22:30   71.9    32    5.6   104     11.5   826.1    0.00       0    76.0
 240   22:40   71.9    33    5.7    95     10.5   826.1    0.00       0    75.9
 240   22:50   71.9    32    6.2   106     10.5   826.1    0.00       0    75.8
 240   23:00   72.2    32    6.5   107     11.8   826.1    0.00       0    75.8
 240   23:10   72.1    32    6.6   112     13.4   826.1    0.00       0    75.7
 240   23:20   72.2    32    6.7   103     12.5   826.1    0.00       0    75.6
 240   23:30   71.9    32    5.5    97     10.4   826.1    0.00       0    75.5
 240   23:40   71.9    32    5.9   110      9.9   826.1    0.00       0    75.4
 240   23:50   72.1    32    5.6    92     10.0   826.0    0.00       0    75.3
 241    0:00   71.7    33    5.4   110     11.0   826.0    0.00       0    75.1
 241    0:10   71.6    33    5.2   112     11.4   826.0    0.00       0    75.0
 241    0:20   71.2    34    3.9   119      9.5   826.1    0.00       0    74.9
 241    0:30   71.1    34    6.6    92     10.8   826.1    0.00       0    74.8
 241    0:40   71.0    34    6.2    96     10.8   826.1    0.00       0    74.7
 241    0:50   70.8    35    5.4    97      9.3   826.1    0.00       0    74.6
 241    1:00   70.6    35    6.9   103     13.1   826.1    0.00       0    74.5
 241    1:10   70.0    36    6.6   111     13.6   826.0    0.00       0    74.4
 241    1:20   69.9    36    5.8   108     13.2   826.0    0.00       0    74.4
 241    1:30   69.7    36    7.0   103     12.6   826.0    0.00       0    74.3
 241    1:40   69.2    37    7.1    98     12.8   826.0    0.00       0    74.2
 241    1:50   69.3    37    5.6   114     11.4   826.0    0.00       0    74.1
 241    2:00   69.5    36    6.4   101     10.5   826.0    0.00       0    74.1
 241    2:10   69.3    36    5.9    99      9.5   826.0    0.00       0    74.0
 241    2:20   69.3    36    5.0    96      8.8   826.1    0.00       0    74.0
 241    2:30   69.2    36    6.3   100     10.0   826.0    0.00       0    73.8
 241    2:40   69.0    37    6.0    99      9.1   826.0    0.00       0    73.8
 241    2:50   69.1    36    5.1   100      8.1   826.0    0.00       0    73.7
 241    3:00   69.3    36    4.1   109      6.6   826.0    0.00       0    73.7
 241    3:10   69.2    36    3.8   115      7.5   826.1    0.00       0    73.7
 241    3:20   69.2    36    5.5    99      8.7   826.1    0.00       0    73.6
 241    3:30   69.0    36    5.9    97      9.1   826.1    0.00       0    73.6
 241    3:40   68.9    36    5.9   101      8.1   826.1    0.00       0    73.5
 241    3:50   69.0    36    5.4   102      8.2   826.1    0.00       0    73.5
 241    4:00   68.9    36    5.6   100      8.2   826.1    0.00       0    73.4
 241    4:10   68.6    36    5.8   102      8.5   826.1    0.00       0    73.4
 241    4:20   68.7    36    7.0    95     12.0   826.1    0.00       0    73.3
 241    4:30   68.7    36    5.7   104     10.2   826.1    0.00       0    73.3
 241    4:40   69.1    35    5.6   103     10.7   826.1    0.00       0    73.3
 241    4:50   69.2    35    5.3   110      8.8   826.1    0.00       0    73.2
 241    5:00   68.9    35    6.1   107     11.1   826.0    0.00       0    73.2
 241    5:10   68.9    35    5.7   107      8.6   826.0    0.00       0    73.2
 241    5:20   69.1    35    5.5   106      8.9   826.0    0.00       0    73.1
 241    5:30   69.1    35    6.0   105     10.4   826.0    0.00       0    73.1
 241    5:40   68.9    35    6.9    95     10.1   826.0    0.00       0    73.1
 241    5:50   69.1    35    6.2    92     10.1   826.0    0.00       1    73.0
 241    6:00   68.8    35    5.5    72      9.8   826.0    0.00       3    73.0
 241    6:10   69.0    35    4.4    64      7.8   826.1    0.00       7    73.0

Return to Cedar City, Utah graphs page.


Western Regional Climate Center,wrcc@dri.edu